Media Club - Veloso, Caetano (Caetano Veloso) (MP3, Photo, Lyrics, Covers)
Legal Info  
newsabout ushelp (faq)searchdirectorylinkssoftwarechartsSwitch Language
 A   B   C   D   E   F   G   H   I   J   K   L   M   N   O   P   Q   R   S   T   U   V   W   X   Y   Z   0...9 
                                                                                  
directory
border=0

  Veloso, Caetano

Veloso, Caetano
  Band/Artist:  Veloso, Caetano
Country:  Brasil
Genre:  Latin
Style:
URL's:  www.CaetanoVeloso.com.br
 www.discogs.com/artist/Caetano+Veloso
find track in this albums
Discography:
year title tracks added
(updated)
 Albums
2012 Abra 2012 11 13.02.2013
2009 Zii e Zie 2009 13 13.02.2013
2006 Perfil 2006 18 12.04.2006
2006 C 2006
C
12 13.02.2013
2005 Onqott 2005 9 13.02.2013
2004 A Foreign Sound 2004 22 08.01.2008
2002 Eu ego pezo desculpa 2002 14 08.01.2008
2001 Circulada Vivo 2001 19 08.01.2008
2000 Noites Do Norte 2000 12 08.01.2008
2000 A Bossa de Caetano 2000 14 13.02.2013
1999 Omaggio a Federico e Giulietta 1999 17 08.01.2008
1998 Prenda Minha 1998 20 08.01.2008
1997 Livro 1997 14 08.01.2008
1996 Tieta do Agreste 1996 24 14.02.2013
1994 Fina Estampa 1994 15 08.01.2008
1993 Tropicalia ou Panis Et Circensis 1993 12 08.01.2008
1993 Tropicalia 2 1993 12 08.01.2008
1991 Circulada 1991 11 08.01.2008
1989 Estrangeiro 1989 10 08.01.2008
1987 Caetano 1987 11 08.01.2008
1986 Caetano Veloso (Trilhos Urbanos) 1986 13 13.02.2013
1984 Vela 1984 11 08.01.2008
1983 Uns 1983 11 08.01.2008
1982 Cores Nomes 1982 12 08.01.2008
1981 Outras Palavras 1981 13 08.01.2008
1981 Brasil 1981 6 14.02.2013
1979 Cinema Transcendental 1979 12 08.01.2008
1978 Dentro Da Estrela Azulada 1978 11 08.01.2008
1977 Bicho 1977 9 08.01.2008
1977 Muitos Carnavais 1977 12 08.01.2008
1975 Joia 1975 13 08.01.2008
1975 Qualquer Coisa 1975 12 08.01.2008
1973 Araza Azul 1973 10 08.01.2008
1972 Transa 1972 7 08.01.2008
1971 Caetano Veloso 1971 7 08.01.2008
1969 Caetano Veloso (White Album) 1969 12 08.01.2008
1968 Velloso, Bethania, Gil 1968 12 14.02.2013
1967 Domingo 1967 12 08.01.2008
1967 Caetano Veloso 1967 12 08.01.2008
 Singles, Mini-CD's, EP's
1999 Sozinho Remix 1999 3 14.02.2013
1993 Marcianita 1993 5 14.02.2013
 Live Albums
2014 Multishow Ao Vivo - Abracaco (DVD) 2014 26 19.02.2014
2011 Multishow Ao Vivo (CD 1) 2011 13 14.02.2013
2011 Multishow Ao Vivo (CD 2) 2011 13 14.02.2013
2011 MTV Ao Vivo - Zii e Zie 2011 17 14.02.2013
2008 E a Musica de Tom Jobim 2008 16 14.02.2013
2007 Cj ao Vivo 2007 17 14.02.2013
2002 Bicho Baile Show 2002 14 14.02.2013
2001 Noites Do Norte Ao Vivo 2001 32 08.01.2008
2001 Noites do Norte ao Vivo (CD 1) 2001 16 14.02.2013
2001 Noites do Norte ao Vivo (CD 2) 2001 16 14.02.2013
1999 Omaggio a Federico e Giulietta 1999 19 14.02.2013
1998 Prenda Minha ao Vivo 1998 18 14.02.2013
1995 Fina Estampa Ao Vivo 1995 17 08.01.2008
1992 Circulado Ao Vivo (CD 1) 1992 11 14.02.2013
1992 Circulado Ao Vivo (CD 2) 1992 8 14.02.2013
1986 Totalmente Demais (Ao Vivo) 1986 16 08.01.2008
1986 In NYC 1986 13 08.01.2008
1986 Melhores Momentos de Chico e Caetano ao Vivo 1986 11 14.02.2013
1978 Maria Bethania & Caetano Veloso ao Vivo 1978 12 08.01.2008
1976 Doces Barbaros (CD 1) 1976 10 08.01.2008
1976 Doces Barbaros (CD 2) 1976 7 08.01.2008
1974 Temporada de Verco - Ao Vivo na Bahia 1974 9 14.02.2013
1972 Barra 69 Caetano E Gil Ao Vivo Na Bahia 1972 7 08.01.2008
1972 Caetano e Chico Juntos e Ao Vivo 1972 11 08.01.2008
1972 Barra 69' Ao Vivo na Bahia 1972 7 14.02.2013
1972 Caetano & Chico - Juntos e Ao Vivo 1972 11 14.02.2013
 Compilations, Remixes
2010 Que De-Lindo - Caetano Raridades 4 2010 20 14.02.2013
2009 Certeza da Beleza - Caetano Raridades 3 2009 20 14.02.2013
2007 Cinema Olympia - Caetano Raro & Inidito 2007 19 14.02.2013
2006 Pipoca Moderna - Caetano Raro & Inidito 2 2006 19 14.02.2013
2003 Antologia 67-03 (CD 1) 2003 16 14.02.2013
2003 Antologia 67-03 (CD 2) 2003 18 14.02.2013
2003 The Best of Caetano Veloso 2003 15 14.02.2013
2002 Novelas 2002 15 14.02.2013
1999 Singles 1999 18 14.02.2013
1994 Caetano Canta 1994 14 14.02.2013
1994 Minha Hist 1994 14 14.02.2013
 Tributes
L 0.00 / D 0.00 1967 12 32014.02.2017
L 0.00 / D 1.00 1981 6 32026.02.2013
L 0.00 / D 0.00 1974 9 32031.01.2018
L 0.00 / D 0.00 1976 10 32031.01.2018
L 0.00 / D 0.00 1976 8 32031.01.2018
L 0.00 / D 0.00 2016 13 32018.02.2018
L 0.00 / D 0.00 2016 15 32018.02.2018
Status: Guest
Log In Log In
Register Register
HELP HELP
Affiliate program Affiliate program


Gothic Jewelry Shop

Subscribe to RSS News
add bookmark
livejournal twitter google.com  del.icio.us  technorati.com  Digg  Furl  Netscape  Yahoo! My Web
  StumbleUpon  BlinkList  Newsvine  ma.gnolia  reddit  Windows Live  Tailrank
SEARCH
Пользовательского поиска
LOOK ALSO
more info
HISTORY OF ADDITIONS
Mn Tu We Th Fr Sa Su
   1  2  3  4  5  6
 7  8  9  10  11  12  13
 14  15  16  17  18  19  20
 21  22  23  24  25  26  27
 28  29  30  31      
go top

Media ClubCreated by TDG